Time;durP1;ratioP1;P1;durP2;ratioP2;P2;SDS_P1;SDS_P2;PMS_P1;PMS_P2;Temp;Humidity;BMP_temperature;BMP_pressure;BME280_temperature;BME280_humidity;BME280_pressure;Samples;Min_cycle;Max_cycle;Signal;HPM_P1;HPM_P2
2022/04/07 00:00:41;;;;;;;5.88;2.60;;;;;;;2.03;49.87;100336.88;5017619;28;20058;-54
2022/04/07 00:03:14;;;;;;;6.50;2.70;;;;;;;2.21;50.25;100330.34;5017897;28;20064;-54
2022/04/07 00:05:44;;;;;;;9.75;2.80;;;;;;;2.99;49.14;100314.44;5018336;28;20095;-54
2022/04/07 00:08:15;;;;;;;9.35;2.80;;;;;;;3.50;46.86;100322.06;5021690;28;20236;-54
2022/04/07 00:10:47;;;;;;;7.20;3.03;;;;;;;3.98;46.12;100315.75;5021543;28;20053;-54
2022/04/07 00:13:17;;;;;;;5.63;2.97;;;;;;;4.00;45.65;100314.06;5021323;28;20283;-53
2022/04/07 00:15:48;;;;;;;12.27;2.85;;;;;;;3.73;45.84;100312.88;5021479;28;20057;-56
2022/04/07 00:18:21;;;;;;;7.85;2.97;;;;;;;3.40;44.28;100315.91;5021467;28;20089;-57
2022/04/07 00:20:52;;;;;;;11.32;3.17;;;;;;;3.16;45.39;100317.28;5021296;28;20060;-56
2022/04/07 00:23:23;;;;;;;11.93;2.92;;;;;;;3.19;46.06;100312.16;5021557;28;20237;-56
2022/04/07 00:25:54;;;;;;;11.48;2.40;;;;;;;3.18;43.96;100309.56;5014723;28;20050;-54
2022/04/07 00:28:25;;;;;;;3.70;2.13;;;;;;;3.42;43.65;100315.09;5007157;28;20066;-56
2022/04/07 00:30:55;;;;;;;5.78;2.63;;;;;;;3.28;46.82;100316.59;5001373;28;20241;-53
2022/04/07 00:33:28;;;;;;;6.47;2.90;;;;;;;4.06;45.60;100303.78;5008357;28;20065;-54
2022/04/07 00:35:59;;;;;;;8.55;2.90;;;;;;;5.01;44.12;100304.59;5022939;28;20113;-56
2022/04/07 00:38:29;;;;;;;8.02;2.55;;;;;;;5.83;42.03;100298.13;5020561;28;20038;-53
2022/04/07 00:41:00;;;;;;;4.95;2.55;;;;;;;6.60;39.65;100300.91;5020730;28;20062;-55
2022/04/07 00:43:31;;;;;;;10.15;2.70;;;;;;;6.80;39.48;100296.59;5019679;28;20311;-56
2022/04/07 00:46:03;;;;;;;11.98;2.40;;;;;;;6.42;35.46;100294.84;5019602;28;20327;-55
2022/04/07 00:48:36;;;;;;;44.75;4.40;;;;;;;5.34;39.47;100334.19;5019907;28;20073;-55
2022/04/07 00:51:08;;;;;;;11.48;2.40;;;;;;;4.07;42.58;100344.31;5017124;28;20081;-57
2022/04/07 00:53:40;;;;;;;5.93;2.10;;;;;;;3.27;46.84;100356.19;5019995;28;20289;-58
2022/04/07 00:56:12;;;;;;;3.72;2.42;;;;;;;3.14;47.50;100336.19;5019760;28;20054;-54
2022/04/07 00:58:43;;;;;;;5.97;3.00;;;;;;;3.54;47.57;100323.84;5017141;28;20054;-54
2022/04/07 01:01:14;;;;;;;5.63;2.78;;;;;;;4.24;47.17;100319.50;5019543;28;20096;-55
2022/04/07 01:03:47;;;;;;;5.47;2.58;;;;;;;4.75;45.03;100302.69;5017732;28;20118;-56
2022/04/07 01:06:20;;;;;;;6.25;2.42;;;;;;;4.96;43.48;100301.13;5019404;28;20065;-56
2022/04/07 01:08:51;;;;;;;9.60;2.80;;;;;;;5.19;41.92;100309.94;5019431;28;20376;-55
2022/04/07 01:11:22;;;;;;;5.40;2.63;;;;;;;5.66;39.79;100292.00;5015491;28;20057;-56
2022/04/07 01:13:53;;;;;;;4.53;2.55;;;;;;;5.92;39.30;100302.50;5016266;28;20054;-56
2022/04/07 01:16:29;;;;;;;7.18;2.58;;;;;;;5.87;39.59;100292.09;5000692;28;20056;-54
2022/04/07 01:19:03;;;;;;;8.27;2.55;;;;;;;5.98;39.48;100292.16;5006842;28;20038;-55
2022/04/07 01:21:36;;;;;;;4.97;2.45;;;;;;;6.01;38.34;100293.03;5019077;28;20069;-53
2022/04/07 01:24:08;;;;;;;6.90;1.70;;;;;;;5.68;35.92;100288.56;5019651;28;20229;-55
2022/04/07 01:26:42;;;;;;;3.47;1.92;;;;;;;5.42;36.34;100285.88;5019112;28;20252;-54
2022/04/07 01:29:14;;;;;;;5.85;2.00;;;;;;;5.15;36.42;100282.25;5017502;28;20054;-54
2022/04/07 01:31:45;;;;;;;3.53;1.80;;;;;;;4.74;36.43;100233.69;5015652;28;20085;-55
2022/04/07 01:34:23;;;;;;;9.18;2.63;;;;;;;4.83;37.64;100284.63;5016001;28;20057;-51
2022/04/07 01:36:55;;;;;;;3.58;2.10;;;;;;;4.59;37.78;100285.31;5017989;28;20058;-53
2022/04/07 01:39:27;;;;;;;21.85;2.08;;;;;;;4.42;38.38;100292.06;5012458;28;20406;-54
2022/04/07 01:41:59;;;;;;;6.25;2.00;;;;;;;4.33;39.13;100283.34;5039584;28;20041;-52
2022/04/07 01:44:32;;;;;;;6.55;2.00;;;;;;;4.36;39.10;100292.88;5017554;28;20060;-53
2022/04/07 01:47:03;;;;;;;4.63;1.85;;;;;;;4.31;39.56;100289.38;5021678;28;20057;-55
2022/04/07 01:49:37;;;;;;;3.35;1.85;;;;;;;4.35;40.32;100298.03;5025603;28;20363;-56
2022/04/07 01:52:10;;;;;;;6.00;2.10;;;;;;;4.60;37.92;100287.06;5026206;28;20240;-53
2022/04/07 01:54:42;;;;;;;7.00;2.40;;;;;;;4.82;38.40;100251.84;5024354;28;20336;-53
2022/04/07 01:57:15;;;;;;;4.93;2.38;;;;;;;5.38;38.26;100294.47;5018495;28;20057;-56
2022/04/07 01:59:46;;;;;;;7.22;1.70;;;;;;;5.50;37.42;100273.81;5037978;28;20095;-56
2022/04/07 02:02:16;;;;;;;5.03;2.10;;;;;;;5.45;37.27;100279.84;5030404;28;20049;-55
2022/04/07 02:04:57;;;;;;;3.60;2.35;;;;;;;5.13;36.43;100280.53;5039241;28;20068;-52
2022/04/07 02:07:31;;;;;;;5.35;2.33;;;;;;;5.03;39.37;100282.19;5038102;28;20104;-54
2022/04/07 02:10:02;;;;;;;6.78;2.33;;;;;;;4.85;41.19;100188.88;5023364;28;20133;-52
2022/04/07 02:12:37;;;;;;;5.65;2.55;;;;;;;5.54;40.89;100265.19;5023497;28;20045;-55
2022/04/07 02:15:09;;;;;;;12.45;2.80;;;;;;;5.55;40.46;100269.50;5025465;28;20337;-52
2022/04/07 02:17:40;;;;;;;6.10;2.33;;;;;;;5.59;40.55;100304.97;5024877;28;20186;-55
2022/04/07 02:20:12;;;;;;;12.40;2.80;;;;;;;5.35;40.21;100279.78;5025698;28;20057;-54
2022/04/07 02:22:42;;;;;;;5.60;2.20;;;;;;;5.24;38.53;100277.97;5024292;28;20077;-52
2022/04/07 02:25:13;;;;;;;8.25;2.33;;;;;;;4.86;37.20;100276.88;5024474;28;20054;-55
2022/04/07 02:27:46;;;;;;;5.72;1.80;;;;;;;4.65;35.88;100258.63;5023519;28;20061;-52
2022/04/07 02:30:17;;;;;;;5.80;2.13;;;;;;;4.47;36.98;100249.00;5024251;28;20053;-54
2022/04/07 02:32:48;;;;;;;6.32;2.40;;;;;;;4.57;36.21;100250.81;5024348;28;20337;-53
2022/04/07 02:35:19;;;;;;;6.03;2.17;;;;;;;4.85;37.25;100257.03;5023019;28;20293;-55
2022/04/07 02:37:50;;;;;;;6.68;2.30;;;;;;;4.97;37.25;100256.25;5024931;28;20045;-54
2022/04/07 02:40:21;;;;;;;5.07;2.13;;;;;;;5.03;36.86;100256.28;5024648;28;20113;-56
2022/04/07 02:42:53;;;;;;;3.92;2.10;;;;;;;4.93;36.98;100247.59;5025476;28;20057;-53
2022/04/07 02:45:24;;;;;;;5.38;2.03;;;;;;;4.89;37.21;100252.75;5025174;28;20120;-54
2022/04/07 02:47:54;;;;;;;4.05;1.98;;;;;;;4.86;37.48;100242.38;5024952;28;20054;-55
2022/04/07 02:50:25;;;;;;;2.72;1.83;;;;;;;4.80;35.52;100237.16;5024758;28;20053;-53
2022/04/07 02:52:56;;;;;;;6.07;2.15;;;;;;;4.85;35.41;100238.06;5024806;28;20053;-52
2022/04/07 02:55:27;;;;;;;3.00;2.00;;;;;;;5.04;36.10;100236.44;5024635;28;20061;-54
2022/04/07 02:58:01;;;;;;;6.10;1.52;;;;;;;5.13;35.63;100226.13;5024633;28;20061;-53
2022/04/07 03:00:32;;;;;;;5.75;2.10;;;;;;;5.19;36.31;100242.56;5024706;28;20117;-53
2022/04/07 03:03:03;;;;;;;6.93;2.20;;;;;;;5.40;36.68;100246.13;5024508;28;20080;-55
2022/04/07 03:05:34;;;;;;;11.60;2.10;;;;;;;5.42;36.48;100244.41;5024773;28;20225;-54
2022/04/07 03:08:05;;;;;;;3.97;1.83;;;;;;;5.27;36.73;100245.22;5024395;28;20068;-57
2022/04/07 03:10:35;;;;;;;4.28;1.90;;;;;;;5.29;38.69;100247.78;5024555;28;20054;-54
2022/04/07 03:13:08;;;;;;;9.95;2.60;;;;;;;5.40;39.13;100252.16;5024817;28;20057;-54
2022/04/07 03:15:39;;;;;;;8.20;2.50;;;;;;;5.44;37.74;100272.91;5024550;28;20056;-54
2022/04/07 03:18:11;;;;;;;10.40;2.28;;;;;;;5.35;38.17;100273.75;5024827;28;20053;-53
2022/04/07 03:20:42;;;;;;;12.20;2.65;;;;;;;5.19;40.61;100296.97;5024605;28;20418;-55
2022/04/07 03:23:13;;;;;;;10.40;2.47;;;;;;;5.05;43.23;100301.19;5024319;28;20140;-53
2022/04/07 03:25:44;;;;;;;13.52;2.70;;;;;;;5.12;45.14;100304.69;5024399;28;20631;-55
2022/04/07 03:28:16;;;;;;;6.22;2.60;;;;;;;5.27;45.80;100283.22;5024374;28;20402;-55
2022/04/07 03:30:47;;;;;;;5.68;2.33;;;;;;;5.63;44.08;100280.75;5023913;28;20064;-56
2022/04/07 03:33:18;;;;;;;3.42;2.40;;;;;;;5.91;43.05;100270.47;5023219;28;20069;-54
2022/04/07 03:35:49;;;;;;;5.20;2.50;;;;;;;6.13;41.64;100262.78;5023042;28;20068;-53
2022/04/07 03:38:20;;;;;;;4.85;2.40;;;;;;;6.03;41.08;100252.41;5023972;28;20342;-53
2022/04/07 03:40:51;;;;;;;3.85;2.20;;;;;;;6.03;40.11;100252.41;5023159;28;20857;-55
2022/04/07 03:43:23;;;;;;;8.88;2.08;;;;;;;6.08;39.20;100235.97;5024265;28;20075;-54
2022/04/07 03:45:54;;;;;;;5.15;1.85;;;;;;;6.42;39.47;100229.94;5022194;28;20081;-52
2022/04/07 03:48:25;;;;;;;4.38;2.47;;;;;;;6.40;39.65;100246.41;5023807;28;20053;-51
2022/04/07 03:50:56;;;;;;;7.03;2.50;;;;;;;6.18;39.22;100248.09;5023672;28;20239;-54
2022/04/07 03:53:27;;;;;;;7.75;2.00;;;;;;;5.95;39.47;100241.16;5023304;28;20068;-54
2022/04/07 03:55:58;;;;;;;4.25;2.20;;;;;;;5.84;39.79;100222.06;5024348;28;20121;-53
2022/04/07 03:58:30;;;;;;;6.93;2.03;;;;;;;5.94;40.26;100228.16;5023447;28;20061;-54
2022/04/07 04:01:01;;;;;;;3.83;2.28;;;;;;;5.69;38.94;100217.72;5023700;28;20295;-56
2022/04/07 04:03:32;;;;;;;6.65;2.30;;;;;;;5.38;38.99;100232.28;5023513;28;20328;-54
2022/04/07 04:06:03;;;;;;;8.18;2.28;;;;;;;5.24;39.26;100223.59;5024073;28;20053;-55
2022/04/07 04:08:34;;;;;;;7.10;2.20;;;;;;;5.29;38.03;100216.69;5023969;28;20056;-56
2022/04/07 04:11:04;;;;;;;4.55;1.95;;;;;;;5.68;36.78;100220.31;5023768;28;20050;-57
2022/04/07 04:13:37;;;;;;;8.90;2.45;;;;;;;5.93;36.40;100211.72;5023666;28;20046;-54
2022/04/07 04:16:08;;;;;;;5.65;2.05;;;;;;;5.84;36.06;100216.88;5023544;28;20247;-53
2022/04/07 04:18:39;;;;;;;5.30;2.30;;;;;;;5.66;35.04;100186.59;5024260;28;20053;-54
2022/04/07 04:21:10;;;;;;;3.30;1.83;;;;;;;5.91;36.05;100216.03;5022531;28;20060;-58
2022/04/07 04:23:40;;;;;;;7.82;2.67;;;;;;;6.03;35.92;100213.47;5022446;28;20375;-53
2022/04/07 04:26:11;;;;;;;6.18;2.42;;;;;;;5.88;36.69;100208.25;5023860;28;20042;-54
2022/04/07 04:28:44;;;;;;;4.80;2.28;;;;;;;5.69;36.61;100217.72;5023737;28;20069;-54
2022/04/07 04:31:14;;;;;;;4.80;2.13;;;;;;;5.43;39.53;100222.81;5022826;28;20054;-53
2022/04/07 04:33:45;;;;;;;6.03;2.83;;;;;;;5.17;40.19;100228.75;5022112;28;20111;-53
2022/04/07 04:36:16;;;;;;;7.63;2.42;;;;;;;5.31;41.00;100230.53;5021263;28;20103;-52
2022/04/07 04:38:47;;;;;;;3.88;2.13;;;;;;;5.35;40.08;100237.47;5022364;28;20084;-55
2022/04/07 04:41:18;;;;;;;8.35;2.95;;;;;;;5.24;40.22;100239.13;5022469;28;20049;-54
2022/04/07 04:43:50;;;;;;;7.20;2.50;;;;;;;4.97;41.38;100246.75;5022446;28;20041;-54
2022/04/07 04:46:21;;;;;;;6.38;2.30;;;;;;;4.86;42.22;100258.75;5023492;28;20041;-54
2022/04/07 04:48:52;;;;;;;8.60;2.45;;;;;;;5.15;41.17;100251.19;5023322;28;20045;-55
2022/04/07 04:51:23;;;;;;;6.85;2.20;;;;;;;5.65;40.31;100246.22;5023351;28;20092;-54
2022/04/07 04:53:54;;;;;;;4.85;2.47;;;;;;;5.84;39.85;100228.13;5025282;28;20065;-54
2022/04/07 04:56:27;;;;;;;5.47;2.35;;;;;;;5.95;40.86;100228.19;5025624;28;20157;-56
2022/04/07 04:58:59;;;;;;;4.82;1.85;;;;;;;5.79;40.28;100208.22;5026241;28;20042;-56
2022/04/07 05:01:30;;;;;;;6.85;2.33;;;;;;;5.69;40.56;100237.56;5026789;28;20111;-54
2022/04/07 05:04:01;;;;;;;4.90;2.30;;;;;;;5.72;39.67;100238.47;5026640;28;20466;-52
2022/04/07 05:06:31;;;;;;;8.13;2.70;;;;;;;5.67;40.18;100229.81;5025344;28;20826;-51
2022/04/07 05:09:02;;;;;;;38.75;3.75;;;;;;;5.45;39.80;100228.88;5025326;28;20371;-54
2022/04/07 05:11:33;;;;;;;11.75;2.22;;;;;;;5.18;38.94;100220.09;5024074;28;20056;-58
2022/04/07 05:14:06;;;;;;;5.95;2.45;;;;;;;5.00;40.55;100225.19;5025618;28;20089;-54
2022/04/07 05:16:36;;;;;;;11.07;2.70;;;;;;;4.96;41.62;100223.44;5025368;28;20061;-53
2022/04/07 05:19:07;;;;;;;7.78;2.72;;;;;;;4.98;40.83;100221.72;5025525;28;20294;-52
2022/04/07 05:21:38;;;;;;;8.48;2.97;;;;;;;5.27;40.57;100223.63;5025190;28;20049;-57
2022/04/07 05:24:09;;;;;;;14.30;3.22;;;;;;;5.22;40.75;100220.13;5025630;28;20068;-53
2022/04/07 05:26:40;;;;;;;9.32;2.58;;;;;;;5.13;37.07;100216.63;5025461;28;20049;-53
2022/04/07 05:29:13;;;;;;;8.70;2.22;;;;;;;5.10;38.18;100226.97;5025548;28;20118;-53
2022/04/07 05:31:44;;;;;;;11.25;3.75;;;;;;;5.19;35.73;100227.03;5025292;28;20049;-57
2022/04/07 05:34:15;;;;;;;8.85;2.78;;;;;;;5.40;36.99;100225.41;5026175;28;20057;-53
2022/04/07 05:36:46;;;;;;;10.05;2.03;;;;;;;5.30;34.99;100234.00;5025922;28;20052;-54
2022/04/07 05:39:17;;;;;;;5.25;2.00;;;;;;;4.96;35.74;100218.25;5025694;28;20387;-56
2022/04/07 05:41:48;;;;;;;7.13;2.03;;;;;;;4.85;37.04;100231.16;5026177;28;20045;-53
2022/04/07 05:44:20;;;;;;;8.82;2.97;;;;;;;4.47;37.59;100173.97;5026339;28;20049;-53
2022/04/07 05:46:51;;;;;;;8.40;2.53;;;;;;;4.76;38.11;100231.09;5025844;28;20037;-57
2022/04/07 05:49:22;;;;;;;8.80;3.00;;;;;;;4.68;37.64;100233.63;5025935;28;20052;-57
2022/04/07 05:51:54;;;;;;;10.35;2.90;;;;;;;4.63;38.43;100243.06;5026022;28;20135;-53
2022/04/07 05:54:25;;;;;;;13.32;2.38;;;;;;;4.68;38.77;100228.44;5025797;28;20251;-56
2022/04/07 05:56:56;;;;;;;7.50;2.40;;;;;;;4.68;37.73;100233.63;5025713;28;20041;-54
2022/04/07 05:59:28;;;;;;;9.05;2.15;;;;;;;4.52;37.73;100243.00;5025623;28;20065;-52
2022/04/07 06:01:59;;;;;;;12.30;2.50;;;;;;;4.34;38.72;100237.66;5025471;28;20049;-53
2022/04/07 06:04:29;;;;;;;12.68;3.05;;;;;;;4.27;39.65;100247.09;5025638;28;20081;-53
2022/04/07 06:07:00;;;;;;;4.82;2.70;;;;;;;4.24;38.83;100243.59;5025701;28;20268;-55
2022/04/07 06:09:33;;;;;;;7.90;2.80;;;;;;;4.16;40.49;100248.72;5025708;28;20053;-53
2022/04/07 06:12:04;;;;;;;4.85;2.42;;;;;;;4.22;39.30;100241.03;5025461;28;20053;-52
2022/04/07 06:14:36;;;;;;;6.95;2.30;;;;;;;4.27;39.26;100235.91;5025395;28;20065;-57
2022/04/07 06:17:07;;;;;;;6.35;2.10;;;;;;;4.28;37.97;100230.72;5025544;28;20392;-54
2022/04/07 06:19:37;;;;;;;4.40;2.40;;;;;;;4.27;39.38;100235.91;5025098;28;20414;-55
2022/04/07 06:22:08;;;;;;;6.20;2.47;;;;;;;4.36;39.78;100245.44;5025447;28;20100;-58
2022/04/07 06:24:39;;;;;;;5.53;2.67;;;;;;;4.50;39.39;100241.25;5025526;28;20080;-53
2022/04/07 06:27:10;;;;;;;8.68;2.67;;;;;;;4.45;40.25;100245.53;5025043;28;20069;-50
2022/04/07 06:29:42;;;;;;;8.30;3.40;;;;;;;4.22;39.85;100248.78;5025434;28;20054;-51
2022/04/07 06:32:13;;;;;;;11.15;2.85;;;;;;;4.10;38.64;100246.09;5025253;28;20272;-55
2022/04/07 06:34:44;;;;;;;6.65;2.83;;;;;;;3.81;38.89;100213.03;5025371;28;20092;-54
2022/04/07 06:37:14;;;;;;;9.88;3.13;;;;;;;4.05;39.57;100238.28;5025674;28;20081;-51
2022/04/07 06:39:45;;;;;;;12.35;4.95;;;;;;;4.20;38.36;100234.97;5025161;28;20109;-56
2022/04/07 06:42:16;;;;;;;31.92;12.65;;;;;;;4.28;39.46;100230.72;5024932;28;20096;-56
2022/04/07 06:44:51;;;;;;;23.35;9.13;;;;;;;4.02;38.86;100188.25;5024881;28;20414;-54
2022/04/07 06:47:21;;;;;;;13.90;6.50;;;;;;;4.16;39.26;100233.19;5025215;28;20053;-55
2022/04/07 06:49:52;;;;;;;22.70;7.70;;;;;;;3.91;38.68;100236.41;5024433;28;20053;-56
2022/04/07 06:52:23;;;;;;;74.18;25.02;;;;;;;3.94;38.71;100236.44;5024679;28;20099;-55
2022/04/07 06:54:54;;;;;;;66.35;22.63;;;;;;;3.92;38.15;100235.53;5023890;28;20054;-57
2022/04/07 06:57:25;;;;;;;46.17;16.90;;;;;;;4.01;38.79;100248.56;5024521;28;20413;-54
2022/04/07 06:59:57;;;;;;;25.52;9.13;;;;;;;4.22;39.43;100253.97;5024837;28;20400;-56
2022/04/07 07:02:28;;;;;;;24.50;8.85;;;;;;;4.27;39.25;100252.28;5023463;28;20117;-53
2022/04/07 07:05:01;;;;;;;19.98;6.57;;;;;;;4.25;39.47;100243.63;5023996;28;20105;-57
2022/04/07 07:07:32;;;;;;;16.95;3.83;;;;;;;4.14;39.41;100234.91;5023967;28;20053;-55
2022/04/07 07:10:02;;;;;;;10.63;5.03;;;;;;;4.06;38.37;100241.72;5023926;28;20120;-56
2022/04/07 07:12:33;;;;;;;19.55;4.65;;;;;;;3.84;39.77;100246.69;5024659;28;20060;-55
2022/04/07 07:15:06;;;;;;;22.52;7.40;;;;;;;3.68;40.58;100244.78;5023825;28;20065;-54
2022/04/07 07:17:40;;;;;;;20.77;9.10;;;;;;;3.61;41.54;100242.97;5024016;28;20212;-57
2022/04/07 07:20:13;;;;;;;17.45;7.20;;;;;;;3.55;42.05;100232.56;5024010;28;20105;-54
2022/04/07 07:22:44;;;;;;;10.20;4.63;;;;;;;3.51;41.82;100246.31;5023464;28;20077;-57
2022/04/07 07:25:15;;;;;;;15.25;4.95;;;;;;;3.36;42.54;100255.59;5023513;28;20231;-55
2022/04/07 07:27:49;;;;;;;16.02;6.28;;;;;;;3.27;42.41;100247.75;5024369;28;20061;-55
2022/04/07 07:30:22;;;;;;;11.50;5.55;;;;;;;3.23;42.03;100245.97;5024051;28;20068;-57
2022/04/07 07:33:00;;;;;;;20.13;3.75;;;;;;;2.94;42.29;100192.19;5023078;28;20065;-58
2022/04/07 07:35:30;;;;;;;11.60;3.83;;;;;;;3.00;42.12;100207.78;5023977;28;20053;-56
2022/04/07 07:38:03;;;;;;;15.80;4.20;;;;;;;3.09;41.81;100211.34;5024357;28;20221;-57
2022/04/07 07:40:35;;;;;;;10.50;4.47;;;;;;;3.30;41.38;100237.44;5024249;28;20049;-56
2022/04/07 07:43:06;;;;;;;8.27;3.83;;;;;;;3.26;41.80;100235.66;5024238;28;20112;-56
2022/04/07 07:45:38;;;;;;;64.25;6.65;;;;;;;3.23;41.26;100230.47;5023924;28;20056;-57
2022/04/07 07:48:28;;;;;;;10.90;3.75;;;;;;;3.21;41.23;100221.81;5023682;28;20056;-56
2022/04/07 07:51:00;;;;;;;11.30;4.80;;;;;;;3.12;41.34;100221.69;5023984;28;20164;-57
2022/04/07 07:53:30;;;;;;;7.03;3.78;;;;;;;3.09;41.73;100232.84;5023595;28;20064;-55
2022/04/07 07:56:01;;;;;;;10.77;3.47;;;;;;;3.03;40.90;100222.44;5023706;28;20113;-56
2022/04/07 07:58:32;;;;;;;9.50;3.47;;;;;;;2.94;41.13;100228.34;5023749;28;20041;-57
2022/04/07 08:01:04;;;;;;;10.77;3.65;;;;;;;2.94;41.11;100232.63;5024009;28;20097;-56
2022/04/07 08:03:35;;;;;;;5.40;2.97;;;;;;;2.83;41.42;100232.50;5024292;28;20077;-56
2022/04/07 08:06:05;;;;;;;23.17;3.90;;;;;;;2.70;41.66;100228.00;5023998;28;20332;-56
2022/04/07 08:08:36;;;;;;;8.82;3.70;;;;;;;2.56;41.52;100233.81;5023881;28;20087;-57
2022/04/07 08:11:07;;;;;;;10.43;4.32;;;;;;;2.46;42.47;100244.81;5023548;28;20066;-56
2022/04/07 08:13:37;;;;;;;13.40;4.60;;;;;;;2.36;42.84;100242.94;5023459;28;20340;-54
2022/04/07 08:16:10;;;;;;;19.10;4.95;;;;;;;2.29;42.70;100251.41;5023685;28;20061;-54
2022/04/07 08:18:40;;;;;;;12.60;4.50;;;;;;;2.21;42.51;100247.84;5023755;28;20061;-53
2022/04/07 08:21:11;;;;;;;11.68;4.63;;;;;;;2.19;43.70;100246.94;5024045;28;20157;-55
2022/04/07 08:23:42;;;;;;;14.32;5.47;;;;;;;2.08;43.40;100242.47;5023725;28;20077;-55
2022/04/07 08:26:12;;;;;;;37.92;6.18;;;;;;;2.01;43.68;100239.75;5021908;28;20358;-54
2022/04/07 08:28:43;;;;;;;132.82;9.27;;;;;;;1.66;44.35;100186.75;5025601;28;20128;-55
2022/04/07 08:31:16;;;;;;;11.80;3.97;;;;;;;1.92;44.33;100240.44;5025789;28;20052;-57
2022/04/07 08:33:47;;;;;;;10.52;4.03;;;;;;;1.89;44.65;100246.41;5027686;28;20132;-57
2022/04/07 08:36:18;;;;;;;13.93;4.43;;;;;;;1.66;45.55;100212.50;5027699;28;20412;-56
2022/04/07 08:38:48;;;;;;;11.13;3.95;;;;;;;1.82;45.35;100254.00;5027331;28;20104;-54
2022/04/07 08:41:20;;;;;;;9.30;4.20;;;;;;;1.24;45.29;100161.91;5027825;28;20247;-56
2022/04/07 08:43:51;;;;;;;11.90;4.47;;;;;;;1.70;45.95;100260.69;5027360;28;20057;-56
2022/04/07 08:46:23;;;;;;;8.15;3.92;;;;;;;1.64;46.57;100257.97;5026499;28;20080;-57
2022/04/07 08:48:57;;;;;;;12.35;4.28;;;;;;;1.59;46.94;100257.00;5026897;28;20326;-56
2022/04/07 08:51:31;;;;;;;8.18;3.85;;;;;;;1.53;46.68;100256.91;5024857;28;20113;-55
2022/04/07 08:54:02;;;;;;;15.27;4.63;;;;;;;1.31;46.73;100228.97;5026151;28;20045;-53
2022/04/07 08:56:32;;;;;;;12.32;4.43;;;;;;;1.36;46.52;100253.13;5026147;28;20113;-57
2022/04/07 08:59:03;;;;;;;11.75;3.70;;;;;;;1.35;46.55;100262.56;5025676;28;20112;-54
2022/04/07 09:01:36;;;;;;;21.23;4.28;;;;;;;1.28;46.78;100261.53;5026266;28;20065;-57
2022/04/07 09:04:07;;;;;;;9.88;3.95;;;;;;;1.23;48.54;100262.28;5026942;28;20261;-54
2022/04/07 09:06:41;;;;;;;11.68;3.55;;;;;;;1.36;47.89;100258.25;5026292;28;20061;-55
2022/04/07 09:09:16;;;;;;;17.25;6.35;;;;;;;1.36;47.98;100258.25;5026659;28;20112;-53
2022/04/07 09:11:48;;;;;;;34.83;11.90;;;;;;;1.12;48.12;100215.72;5026973;28;20056;-55
2022/04/07 09:14:18;;;;;;;20.05;10.82;;;;;;;1.41;48.31;100251.50;5026693;28;20129;-53
2022/04/07 09:16:57;;;;;;;15.27;6.95;;;;;;;1.24;49.25;100249.44;5026622;28;20053;-55
2022/04/07 09:19:28;;;;;;;34.72;5.93;;;;;;;1.25;48.91;100261.47;5026574;28;20336;-54
2022/04/07 09:22:07;;;;;;;35.78;5.95;;;;;;;1.08;49.21;100255.09;5026732;28;20069;-55
2022/04/07 09:24:39;;;;;;;14.90;4.90;;;;;;;1.10;49.14;100261.16;5026080;28;20058;-55
2022/04/07 09:27:12;;;;;;;10.95;5.40;;;;;;;1.08;48.93;100267.97;5026377;28;20125;-55
2022/04/07 09:29:44;;;;;;;17.52;6.32;;;;;;;0.87;49.07;100232.31;5026374;28;20630;-55
2022/04/07 09:32:23;;;;;;;34.40;10.80;;;;;;;1.02;49.99;100267.81;5026796;28;20038;-51
2022/04/07 09:34:55;;;;;;;34.22;7.97;;;;;;;0.93;49.34;100270.22;5026301;28;20058;-54
2022/04/07 09:37:26;;;;;;;12.45;6.13;;;;;;;0.58;49.74;100221.41;5026120;28;20343;-55
2022/04/07 09:40:06;;;;;;;21.48;6.75;;;;;;;0.87;49.10;100276.06;5025283;28;20390;-52
2022/04/07 09:42:38;;;;;;;24.60;7.95;;;;;;;0.93;48.97;100278.78;5025183;28;20060;-55
2022/04/07 09:45:12;;;;;;;30.33;9.88;;;;;;;0.88;49.32;100271.81;5025313;28;20053;-57
2022/04/07 09:47:45;;;;;;;28.80;9.63;;;;;;;0.81;49.44;100269.06;5025340;28;20053;-56
2022/04/07 09:50:23;;;;;;;24.80;10.50;;;;;;;0.84;49.47;100279.44;5025286;28;20066;-55
2022/04/07 09:52:58;;;;;;;59.42;12.10;;;;;;;0.48;49.96;100240.00;5024822;28;20359;-53
2022/04/07 09:55:31;;;;;;;25.55;9.43;;;;;;;0.76;49.78;100285.25;5025256;28;20259;-54
2022/04/07 09:58:03;;;;;;;34.50;10.77;;;;;;;0.69;49.72;100294.50;5025327;28;20304;-53
2022/04/07 10:00:34;;;;;;;20.70;8.57;;;;;;;0.70;49.73;100291.13;5025757;28;20056;-55
2022/04/07 10:03:08;;;;;;;27.17;8.50;;;;;;;0.64;49.88;100296.09;5025728;28;20061;-56
2022/04/07 10:05:39;;;;;;;26.17;9.52;;;;;;;0.70;49.76;100306.56;5026259;28;20120;-54
2022/04/07 10:08:10;;;;;;;30.33;10.05;;;;;;;0.71;49.74;100313.41;5025232;28;20060;-55
2022/04/07 10:10:41;;;;;;;29.85;10.02;;;;;;;0.74;49.49;100303.19;5025318;28;20084;-56
2022/04/07 10:13:13;;;;;;;34.28;10.45;;;;;;;0.73;49.59;100311.75;5025014;28;20121;-53
2022/04/07 10:15:44;;;;;;;26.58;11.73;;;;;;;0.74;49.66;100313.47;5024772;28;20057;-55
2022/04/07 10:18:24;;;;;;;24.17;9.98;;;;;;;0.71;49.71;100328.84;5025160;28;20073;-54
2022/04/07 10:20:59;;;;;;;33.35;11.32;;;;;;;0.76;49.41;100316.97;5024859;28;20112;-57
2022/04/07 10:23:50;;;;;;;27.30;9.98;;;;;;;0.77;49.54;100323.84;5025485;28;20060;-55
2022/04/07 10:26:23;;;;;;;19.13;8.48;;;;;;;0.77;49.34;100333.25;5025483;28;20061;-59
2022/04/07 10:28:57;;;;;;;22.92;8.05;;;;;;;0.73;49.41;100336.63;5024868;28;20053;-57
2022/04/07 10:31:30;;;;;;;20.70;7.15;;;;;;;0.67;49.42;100332.16;5025034;28;20363;-56
2022/04/07 10:34:08;;;;;;;19.30;7.13;;;;;;;0.67;49.56;100337.31;5025122;28;20071;-54
2022/04/07 10:36:40;;;;;;;17.83;6.43;;;;;;;0.55;49.64;100329.28;5025238;28;20050;-52
2022/04/07 10:39:14;;;;;;;18.15;7.18;;;;;;;0.58;49.52;100326.81;5025232;28;20060;-57
2022/04/07 10:41:51;;;;;;;11.17;4.77;;;;;;;0.62;49.59;100336.31;5025090;28;20067;-55
2022/04/07 10:44:24;;;;;;;31.60;6.55;;;;;;;0.61;49.92;100329.47;5025350;28;20339;-57
2022/04/07 10:47:03;;;;;;;11.05;4.45;;;;;;;0.64;49.94;100332.97;5024611;28;20053;-55
2022/04/07 10:49:36;;;;;;;10.13;4.80;;;;;;;0.66;49.61;100332.16;5023967;28;20132;-56
2022/04/07 10:52:07;;;;;;;14.70;5.10;;;;;;;0.20;49.66;100263.34;5022855;28;20408;-53
2022/04/07 10:55:23;;;;;;;11.27;4.88;;;;;;;0.59;50.00;100328.53;5024401;28;20112;-54
2022/04/07 10:58:19;;;;;;;13.32;4.70;;;;;;;0.72;50.07;100333.16;5012746;28;20053;-52
2022/04/07 11:00:50;;;;;;;15.55;4.65;;;;;;;0.68;49.90;100333.94;5023075;28;20052;-53
2022/04/07 11:03:20;;;;;;;11.70;5.25;;;;;;;0.74;50.16;100334.06;5023561;28;20077;-54
2022/04/07 11:06:01;;;;;;;8.55;4.55;;;;;;;0.65;50.42;100323.56;5023365;28;20061;-55
2022/04/07 11:08:32;;;;;;;7.18;4.50;;;;;;;0.72;50.47;100330.56;5024304;28;20271;-53
2022/04/07 11:11:02;;;;;;;10.32;4.93;;;;;;;0.76;50.82;100323.81;5024292;28;20109;-54
2022/04/07 11:13:51;;;;;;;43.20;6.07;;;;;;;0.74;50.71;100318.63;5024214;28;20077;-54
2022/04/07 11:16:30;;;;;;;13.77;5.18;;;;;;;0.74;51.02;100321.19;5024161;28;20255;-57
2022/04/07 11:19:23;;;;;;;14.40;5.13;;;;;;;0.76;51.16;100321.25;5024379;28;20435;-53
2022/04/07 11:22:09;;;;;;;7.13;4.60;;;;;;;0.71;51.40;100323.72;5024271;28;20275;-54
2022/04/07 11:24:45;;;;;;;9.15;4.85;;;;;;;0.76;51.22;100311.81;5023122;28;20084;-55
2022/04/07 11:27:39;;;;;;;8.82;4.25;;;;;;;0.68;51.46;100308.22;5023850;28;20324;-56
2022/04/07 11:30:12;;;;;;;9.48;4.65;;;;;;;0.59;52.04;100307.97;5023983;28;20089;-53
2022/04/07 11:33:16;;;;;;;10.30;4.75;;;;;;;0.65;51.98;100313.28;5023934;28;20042;-52
2022/04/07 11:36:07;;;;;;;8.50;4.75;;;;;;;0.70;51.89;100316.84;5023833;28;20068;-54
2022/04/07 11:38:44;;;;;;;12.95;4.57;;;;;;;0.75;51.76;100304.97;5023699;28;20085;-54
2022/04/07 11:41:16;;;;;;;11.73;4.78;;;;;;;0.61;52.50;100296.03;5023930;28;20057;-53
2022/04/07 11:43:48;;;;;;;10.45;4.68;;;;;;;0.71;52.52;100303.13;5023890;28;20049;-54
2022/04/07 11:46:28;;;;;;;11.60;4.82;;;;;;;0.63;52.76;100291.81;5024068;28;20111;-55
2022/04/07 11:49:04;;;;;;;10.23;4.97;;;;;;;0.70;52.91;100306.56;5023861;28;20060;-53
2022/04/07 11:51:39;;;;;;;10.40;5.15;;;;;;;0.71;53.09;100298.00;5023833;28;20054;-53
2022/04/07 11:54:16;;;;;;;13.20;5.03;;;;;;;0.67;53.63;100301.31;5022932;28;20233;-54